sensor_id;sensor_type;location;lat;lon;timestamp;P1;durP1;ratioP1;P2;durP2;ratioP2
2912;SDS011;1466;48.778;9.166;2023-05-07T00:02:05;25.03;;;9.13;;
2912;SDS011;1466;48.778;9.166;2023-05-07T00:04:32;30.80;;;10.15;;
2912;SDS011;1466;48.778;9.166;2023-05-07T00:07:01;32.28;;;10.63;;
2912;SDS011;1466;48.778;9.166;2023-05-07T00:09:27;31.83;;;10.73;;
2912;SDS011;1466;48.778;9.166;2023-05-07T00:11:53;28.23;;;10.00;;
2912;SDS011;1466;48.778;9.166;2023-05-07T00:14:18;21.90;;;9.83;;
2912;SDS011;1466;48.778;9.166;2023-05-07T00:16:44;19.60;;;9.70;;
2912;SDS011;1466;48.778;9.166;2023-05-07T00:19:09;19.87;;;9.57;;
2912;SDS011;1466;48.778;9.166;2023-05-07T00:21:35;23.77;;;10.13;;
2912;SDS011;1466;48.778;9.166;2023-05-07T00:24:00;21.73;;;8.77;;
2912;SDS011;1466;48.778;9.166;2023-05-07T00:26:26;28.43;;;11.50;;
2912;SDS011;1466;48.778;9.166;2023-05-07T00:28:52;30.03;;;12.07;;
2912;SDS011;1466;48.778;9.166;2023-05-07T00:31:17;19.47;;;9.97;;
2912;SDS011;1466;48.778;9.166;2023-05-07T00:33:43;34.53;;;10.73;;
2912;SDS011;1466;48.778;9.166;2023-05-07T00:36:08;24.13;;;10.37;;
2912;SDS011;1466;48.778;9.166;2023-05-07T00:38:34;23.00;;;10.37;;
2912;SDS011;1466;48.778;9.166;2023-05-07T00:41:00;24.57;;;9.63;;
2912;SDS011;1466;48.778;9.166;2023-05-07T00:43:27;31.88;;;10.13;;
2912;SDS011;1466;48.778;9.166;2023-05-07T00:45:52;28.83;;;10.63;;
2912;SDS011;1466;48.778;9.166;2023-05-07T00:48:18;38.90;;;12.33;;
2912;SDS011;1466;48.778;9.166;2023-05-07T00:50:44;15.97;;;8.90;;
2912;SDS011;1466;48.778;9.166;2023-05-07T00:53:10;23.33;;;9.52;;
2912;SDS011;1466;48.778;9.166;2023-05-07T00:55:36;22.92;;;9.15;;
2912;SDS011;1466;48.778;9.166;2023-05-07T00:58:03;27.67;;;9.95;;
2912;SDS011;1466;48.778;9.166;2023-05-07T01:00:29;18.20;;;8.47;;
2912;SDS011;1466;48.778;9.166;2023-05-07T01:02:55;24.90;;;10.20;;
2912;SDS011;1466;48.778;9.166;2023-05-07T01:05:20;25.97;;;9.07;;
2912;SDS011;1466;48.778;9.166;2023-05-07T01:07:49;17.42;;;7.70;;
2912;SDS011;1466;48.778;9.166;2023-05-07T01:10:17;27.65;;;8.93;;
2912;SDS011;1466;48.778;9.166;2023-05-07T01:12:43;20.03;;;8.60;;
2912;SDS011;1466;48.778;9.166;2023-05-07T01:15:10;22.60;;;8.45;;
2912;SDS011;1466;48.778;9.166;2023-05-07T01:17:37;24.50;;;8.73;;
2912;SDS011;1466;48.778;9.166;2023-05-07T01:20:05;18.60;;;7.75;;
2912;SDS011;1466;48.778;9.166;2023-05-07T01:22:32;21.63;;;8.23;;
2912;SDS011;1466;48.778;9.166;2023-05-07T01:24:59;19.80;;;8.05;;
2912;SDS011;1466;48.778;9.166;2023-05-07T01:27:26;31.20;;;9.77;;
2912;SDS011;1466;48.778;9.166;2023-05-07T01:29:52;26.13;;;8.70;;
2912;SDS011;1466;48.778;9.166;2023-05-07T01:32:19;23.63;;;8.63;;
2912;SDS011;1466;48.778;9.166;2023-05-07T01:34:54;28.65;;;9.40;;
2912;SDS011;1466;48.778;9.166;2023-05-07T01:37:22;13.55;;;6.53;;
2912;SDS011;1466;48.778;9.166;2023-05-07T01:39:49;16.58;;;7.72;;
2912;SDS011;1466;48.778;9.166;2023-05-07T01:42:15;17.93;;;7.13;;
2912;SDS011;1466;48.778;9.166;2023-05-07T01:44:41;19.23;;;7.97;;
2912;SDS011;1466;48.778;9.166;2023-05-07T01:47:06;18.17;;;7.43;;
2912;SDS011;1466;48.778;9.166;2023-05-07T01:49:33;25.85;;;8.50;;
2912;SDS011;1466;48.778;9.166;2023-05-07T01:51:59;20.55;;;7.75;;
2912;SDS011;1466;48.778;9.166;2023-05-07T01:54:26;19.85;;;8.10;;
2912;SDS011;1466;48.778;9.166;2023-05-07T01:56:58;19.60;;;7.97;;
2912;SDS011;1466;48.778;9.166;2023-05-07T01:59:23;22.15;;;8.30;;
2912;SDS011;1466;48.778;9.166;2023-05-07T02:01:49;34.70;;;10.20;;
2912;SDS011;1466;48.778;9.166;2023-05-07T02:04:15;25.77;;;9.57;;
2912;SDS011;1466;48.778;9.166;2023-05-07T02:06:40;20.43;;;8.70;;
2912;SDS011;1466;48.778;9.166;2023-05-07T02:09:06;16.23;;;7.70;;
2912;SDS011;1466;48.778;9.166;2023-05-07T02:11:33;17.52;;;7.80;;
2912;SDS011;1466;48.778;9.166;2023-05-07T02:13:59;21.93;;;8.37;;
2912;SDS011;1466;48.778;9.166;2023-05-07T02:16:25;16.00;;;7.20;;
2912;SDS011;1466;48.778;9.166;2023-05-07T02:18:51;21.20;;;8.20;;
2912;SDS011;1466;48.778;9.166;2023-05-07T02:21:16;17.57;;;8.00;;
2912;SDS011;1466;48.778;9.166;2023-05-07T02:23:42;19.37;;;8.43;;
2912;SDS011;1466;48.778;9.166;2023-05-07T02:26:08;15.03;;;7.40;;
2912;SDS011;1466;48.778;9.166;2023-05-07T02:28:33;21.60;;;8.33;;
2912;SDS011;1466;48.778;9.166;2023-05-07T02:31:02;28.67;;;10.77;;
2912;SDS011;1466;48.778;9.166;2023-05-07T02:33:30;17.95;;;7.63;;
2912;SDS011;1466;48.778;9.166;2023-05-07T02:35:56;22.13;;;8.00;;
2912;SDS011;1466;48.778;9.166;2023-05-07T02:38:22;22.77;;;8.97;;
2912;SDS011;1466;48.778;9.166;2023-05-07T02:40:48;18.10;;;8.10;;
2912;SDS011;1466;48.778;9.166;2023-05-07T02:43:13;20.23;;;7.90;;
2912;SDS011;1466;48.778;9.166;2023-05-07T02:45:39;18.77;;;7.53;;
2912;SDS011;1466;48.778;9.166;2023-05-07T02:48:04;23.63;;;9.17;;
2912;SDS011;1466;48.778;9.166;2023-05-07T02:50:31;16.20;;;7.82;;
2912;SDS011;1466;48.778;9.166;2023-05-07T02:52:57;16.63;;;8.27;;
2912;SDS011;1466;48.778;9.166;2023-05-07T02:55:23;17.53;;;7.57;;
2912;SDS011;1466;48.778;9.166;2023-05-07T02:57:49;25.77;;;10.07;;
2912;SDS011;1466;48.778;9.166;2023-05-07T03:00:15;21.50;;;8.17;;
2912;SDS011;1466;48.778;9.166;2023-05-07T03:02:43;19.52;;;8.45;;
2912;SDS011;1466;48.778;9.166;2023-05-07T03:05:09;26.98;;;8.88;;
2912;SDS011;1466;48.778;9.166;2023-05-07T03:07:35;22.13;;;9.13;;
2912;SDS011;1466;48.778;9.166;2023-05-07T03:10:01;19.90;;;8.57;;
2912;SDS011;1466;48.778;9.166;2023-05-07T03:12:27;24.58;;;9.30;;
2912;SDS011;1466;48.778;9.166;2023-05-07T03:14:53;20.70;;;8.17;;
2912;SDS011;1466;48.778;9.166;2023-05-07T03:17:18;31.40;;;9.53;;
2912;SDS011;1466;48.778;9.166;2023-05-07T03:19:45;20.65;;;8.40;;
2912;SDS011;1466;48.778;9.166;2023-05-07T03:22:10;26.63;;;9.47;;
2912;SDS011;1466;48.778;9.166;2023-05-07T03:24:36;21.20;;;9.00;;
2912;SDS011;1466;48.778;9.166;2023-05-07T03:27:02;19.60;;;8.10;;
2912;SDS011;1466;48.778;9.166;2023-05-07T03:29:27;20.23;;;8.33;;
2912;SDS011;1466;48.778;9.166;2023-05-07T03:31:53;20.63;;;8.90;;
2912;SDS011;1466;48.778;9.166;2023-05-07T03:34:18;29.40;;;11.17;;
2912;SDS011;1466;48.778;9.166;2023-05-07T03:36:47;25.02;;;8.68;;
2912;SDS011;1466;48.778;9.166;2023-05-07T03:39:13;19.15;;;8.57;;
2912;SDS011;1466;48.778;9.166;2023-05-07T03:41:39;21.47;;;9.47;;
2912;SDS011;1466;48.778;9.166;2023-05-07T03:44:05;18.97;;;8.60;;
2912;SDS011;1466;48.778;9.166;2023-05-07T03:46:30;29.53;;;9.27;;
2912;SDS011;1466;48.778;9.166;2023-05-07T03:48:57;17.70;;;7.97;;
2912;SDS011;1466;48.778;9.166;2023-05-07T03:51:23;18.50;;;7.57;;
2912;SDS011;1466;48.778;9.166;2023-05-07T03:53:49;21.67;;;8.50;;
2912;SDS011;1466;48.778;9.166;2023-05-07T03:56:17;20.77;;;8.20;;
2912;SDS011;1466;48.778;9.166;2023-05-07T03:58:43;13.30;;;7.03;;
2912;SDS011;1466;48.778;9.166;2023-05-07T04:01:09;21.73;;;8.37;;
2912;SDS011;1466;48.778;9.166;2023-05-07T04:03:35;16.60;;;7.50;;
2912;SDS011;1466;48.778;9.166;2023-05-07T04:06:01;18.27;;;7.73;;
2912;SDS011;1466;48.778;9.166;2023-05-07T04:08:26;21.57;;;8.20;;
2912;SDS011;1466;48.778;9.166;2023-05-07T04:10:58;21.93;;;8.23;;
2912;SDS011;1466;48.778;9.166;2023-05-07T04:13:24;24.77;;;8.27;;
2912;SDS011;1466;48.778;9.166;2023-05-07T04:15:51;23.10;;;8.98;;
2912;SDS011;1466;48.778;9.166;2023-05-07T04:18:17;26.75;;;8.85;;
2912;SDS011;1466;48.778;9.166;2023-05-07T04:20:43;20.23;;;9.00;;
2912;SDS011;1466;48.778;9.166;2023-05-07T04:23:08;21.47;;;9.20;;
2912;SDS011;1466;48.778;9.166;2023-05-07T04:25:34;18.67;;;7.47;;
2912;SDS011;1466;48.778;9.166;2023-05-07T04:28:00;29.47;;;9.37;;
2912;SDS011;1466;48.778;9.166;2023-05-07T04:30:25;15.70;;;7.60;;
2912;SDS011;1466;48.778;9.166;2023-05-07T04:32:51;28.20;;;9.80;;
2912;SDS011;1466;48.778;9.166;2023-05-07T04:35:17;14.55;;;7.53;;
2912;SDS011;1466;48.778;9.166;2023-05-07T04:37:43;26.77;;;9.13;;
2912;SDS011;1466;48.778;9.166;2023-05-07T04:40:09;17.87;;;8.30;;
2912;SDS011;1466;48.778;9.166;2023-05-07T04:42:35;19.25;;;7.65;;
2912;SDS011;1466;48.778;9.166;2023-05-07T04:45:00;17.23;;;7.33;;
2912;SDS011;1466;48.778;9.166;2023-05-07T04:47:27;36.42;;;10.73;;
2912;SDS011;1466;48.778;9.166;2023-05-07T04:49:52;26.63;;;8.80;;
2912;SDS011;1466;48.778;9.166;2023-05-07T04:52:18;16.30;;;7.17;;
2912;SDS011;1466;48.778;9.166;2023-05-07T04:54:43;19.93;;;7.90;;
2912;SDS011;1466;48.778;9.166;2023-05-07T04:57:09;15.63;;;6.80;;
2912;SDS011;1466;48.778;9.166;2023-05-07T04:59:34;16.30;;;7.83;;
2912;SDS011;1466;48.778;9.166;2023-05-07T05:02:00;27.33;;;8.70;;
2912;SDS011;1466;48.778;9.166;2023-05-07T05:04:26;20.97;;;8.47;;
2912;SDS011;1466;48.778;9.166;2023-05-07T05:06:57;17.27;;;7.50;;
2912;SDS011;1466;48.778;9.166;2023-05-07T05:09:23;19.67;;;8.37;;
2912;SDS011;1466;48.778;9.166;2023-05-07T05:11:48;14.37;;;7.53;;
2912;SDS011;1466;48.778;9.166;2023-05-07T05:14:14;28.20;;;8.50;;
2912;SDS011;1466;48.778;9.166;2023-05-07T05:16:40;28.30;;;9.90;;
2912;SDS011;1466;48.778;9.166;2023-05-07T05:19:05;23.97;;;9.20;;
2912;SDS011;1466;48.778;9.166;2023-05-07T05:21:31;18.20;;;8.27;;
2912;SDS011;1466;48.778;9.166;2023-05-07T05:23:57;24.58;;;8.93;;
2912;SDS011;1466;48.778;9.166;2023-05-07T05:26:23;18.80;;;8.18;;
2912;SDS011;1466;48.778;9.166;2023-05-07T05:28:49;17.83;;;8.27;;
2912;SDS011;1466;48.778;9.166;2023-05-07T05:31:15;24.43;;;8.43;;
2912;SDS011;1466;48.778;9.166;2023-05-07T05:33:41;26.52;;;9.23;;
2912;SDS011;1466;48.778;9.166;2023-05-07T05:36:08;14.83;;;7.47;;
2912;SDS011;1466;48.778;9.166;2023-05-07T05:38:34;22.58;;;8.63;;
2912;SDS011;1466;48.778;9.166;2023-05-07T05:41:00;15.97;;;7.57;;
2912;SDS011;1466;48.778;9.166;2023-05-07T05:43:25;16.90;;;7.97;;
2912;SDS011;1466;48.778;9.166;2023-05-07T05:45:51;24.40;;;8.87;;
2912;SDS011;1466;48.778;9.166;2023-05-07T05:48:17;28.07;;;9.70;;
2912;SDS011;1466;48.778;9.166;2023-05-07T05:50:42;22.87;;;9.13;;
2912;SDS011;1466;48.778;9.166;2023-05-07T05:53:08;19.20;;;8.30;;
2912;SDS011;1466;48.778;9.166;2023-05-07T05:55:33;17.93;;;8.17;;
2912;SDS011;1466;48.778;9.166;2023-05-07T05:58:00;26.30;;;9.47;;
2912;SDS011;1466;48.778;9.166;2023-05-07T06:00:26;28.27;;;10.75;;
2912;SDS011;1466;48.778;9.166;2023-05-07T06:02:52;25.63;;;9.40;;
2912;SDS011;1466;48.778;9.166;2023-05-07T06:05:18;22.00;;;8.80;;
2912;SDS011;1466;48.778;9.166;2023-05-07T06:07:43;20.90;;;8.50;;
2912;SDS011;1466;48.778;9.166;2023-05-07T06:10:09;16.40;;;8.70;;
2912;SDS011;1466;48.778;9.166;2023-05-07T06:12:35;20.90;;;8.93;;
2912;SDS011;1466;48.778;9.166;2023-05-07T06:15:00;20.13;;;8.90;;
2912;SDS011;1466;48.778;9.166;2023-05-07T06:17:26;29.67;;;10.00;;
2912;SDS011;1466;48.778;9.166;2023-05-07T06:19:52;14.50;;;8.00;;
2912;SDS011;1466;48.778;9.166;2023-05-07T06:22:17;17.30;;;8.50;;
2912;SDS011;1466;48.778;9.166;2023-05-07T06:24:43;20.57;;;8.40;;
2912;SDS011;1466;48.778;9.166;2023-05-07T06:27:09;15.93;;;8.07;;
2912;SDS011;1466;48.778;9.166;2023-05-07T06:29:35;25.00;;;9.13;;
2912;SDS011;1466;48.778;9.166;2023-05-07T06:32:07;19.13;;;8.20;;
2912;SDS011;1466;48.778;9.166;2023-05-07T06:34:33;27.77;;;9.77;;
2912;SDS011;1466;48.778;9.166;2023-05-07T06:36:59;21.50;;;8.80;;
2912;SDS011;1466;48.778;9.166;2023-05-07T06:39:24;17.03;;;8.60;;
2912;SDS011;1466;48.778;9.166;2023-05-07T06:41:50;25.30;;;9.67;;
2912;SDS011;1466;48.778;9.166;2023-05-07T06:44:15;23.70;;;9.67;;
2912;SDS011;1466;48.778;9.166;2023-05-07T06:46:41;37.60;;;11.20;;
2912;SDS011;1466;48.778;9.166;2023-05-07T06:49:07;30.33;;;10.80;;
2912;SDS011;1466;48.778;9.166;2023-05-07T06:51:32;23.23;;;10.47;;
2912;SDS011;1466;48.778;9.166;2023-05-07T06:53:58;30.20;;;10.65;;
2912;SDS011;1466;48.778;9.166;2023-05-07T06:56:24;45.20;;;13.30;;
2912;SDS011;1466;48.778;9.166;2023-05-07T06:58:50;39.00;;;12.40;;
2912;SDS011;1466;48.778;9.166;2023-05-07T07:01:15;34.33;;;11.07;;
2912;SDS011;1466;48.778;9.166;2023-05-07T07:03:41;25.43;;;9.83;;
2912;SDS011;1466;48.778;9.166;2023-05-07T07:06:06;19.23;;;8.73;;
2912;SDS011;1466;48.778;9.166;2023-05-07T07:08:32;24.67;;;10.30;;
2912;SDS011;1466;48.778;9.166;2023-05-07T07:10:59;31.30;;;11.30;;
2912;SDS011;1466;48.778;9.166;2023-05-07T07:13:25;25.43;;;9.37;;
2912;SDS011;1466;48.778;9.166;2023-05-07T07:15:51;31.23;;;10.73;;
2912;SDS011;1466;48.778;9.166;2023-05-07T07:18:18;33.30;;;11.05;;
2912;SDS011;1466;48.778;9.166;2023-05-07T07:20:43;26.20;;;10.50;;
2912;SDS011;1466;48.778;9.166;2023-05-07T07:23:09;24.67;;;9.47;;
2912;SDS011;1466;48.778;9.166;2023-05-07T07:25:35;33.47;;;10.90;;
2912;SDS011;1466;48.778;9.166;2023-05-07T07:28:00;32.93;;;11.00;;
2912;SDS011;1466;48.778;9.166;2023-05-07T07:30:26;29.83;;;10.93;;
2912;SDS011;1466;48.778;9.166;2023-05-07T07:32:52;26.67;;;10.00;;
2912;SDS011;1466;48.778;9.166;2023-05-07T07:35:17;24.97;;;10.07;;
2912;SDS011;1466;48.778;9.166;2023-05-07T07:37:43;17.10;;;8.27;;
2912;SDS011;1466;48.778;9.166;2023-05-07T07:40:09;19.77;;;8.93;;
2912;SDS011;1466;48.778;9.166;2023-05-07T07:42:35;17.33;;;8.73;;
2912;SDS011;1466;48.778;9.166;2023-05-07T07:45:00;20.53;;;9.40;;
2912;SDS011;1466;48.778;9.166;2023-05-07T07:47:26;28.40;;;10.30;;
2912;SDS011;1466;48.778;9.166;2023-05-07T07:49:51;25.30;;;10.80;;
2912;SDS011;1466;48.778;9.166;2023-05-07T07:52:17;23.23;;;9.60;;
2912;SDS011;1466;48.778;9.166;2023-05-07T07:54:44;29.10;;;9.70;;
2912;SDS011;1466;48.778;9.166;2023-05-07T07:57:09;26.40;;;10.03;;
2912;SDS011;1466;48.778;9.166;2023-05-07T07:59:35;23.37;;;9.60;;
2912;SDS011;1466;48.778;9.166;2023-05-07T08:02:01;26.37;;;10.03;;
2912;SDS011;1466;48.778;9.166;2023-05-07T08:04:26;31.90;;;11.17;;
2912;SDS011;1466;48.778;9.166;2023-05-07T08:06:52;25.43;;;10.40;;
2912;SDS011;1466;48.778;9.166;2023-05-07T08:09:19;21.70;;;11.67;;
2912;SDS011;1466;48.778;9.166;2023-05-07T08:11:45;14.83;;;8.80;;
2912;SDS011;1466;48.778;9.166;2023-05-07T08:14:11;26.40;;;9.00;;
2912;SDS011;1466;48.778;9.166;2023-05-07T08:16:36;22.90;;;9.60;;
2912;SDS011;1466;48.778;9.166;2023-05-07T08:19:02;26.70;;;10.37;;
2912;SDS011;1466;48.778;9.166;2023-05-07T08:21:28;19.17;;;8.47;;
2912;SDS011;1466;48.778;9.166;2023-05-07T08:23:53;19.63;;;8.93;;
2912;SDS011;1466;48.778;9.166;2023-05-07T08:26:19;21.33;;;9.40;;
2912;SDS011;1466;48.778;9.166;2023-05-07T08:28:45;16.80;;;8.40;;
2912;SDS011;1466;48.778;9.166;2023-05-07T08:31:11;22.70;;;9.10;;
2912;SDS011;1466;48.778;9.166;2023-05-07T08:33:36;22.27;;;9.50;;
2912;SDS011;1466;48.778;9.166;2023-05-07T08:36:03;18.63;;;7.77;;
2912;SDS011;1466;48.778;9.166;2023-05-07T08:38:29;17.10;;;8.07;;
2912;SDS011;1466;48.778;9.166;2023-05-07T08:40:56;17.50;;;8.50;;
2912;SDS011;1466;48.778;9.166;2023-05-07T08:43:21;20.17;;;7.93;;
2912;SDS011;1466;48.778;9.166;2023-05-07T08:45:52;18.13;;;8.10;;
2912;SDS011;1466;48.778;9.166;2023-05-07T08:48:20;19.07;;;7.87;;
2912;SDS011;1466;48.778;9.166;2023-05-07T08:50:50;24.37;;;9.37;;
2912;SDS011;1466;48.778;9.166;2023-05-07T08:53:16;23.57;;;8.60;;
2912;SDS011;1466;48.778;9.166;2023-05-07T08:55:42;36.63;;;11.20;;
2912;SDS011;1466;48.778;9.166;2023-05-07T08:58:08;27.70;;;9.47;;
2912;SDS011;1466;48.778;9.166;2023-05-07T09:00:34;17.87;;;8.00;;
2912;SDS011;1466;48.778;9.166;2023-05-07T09:03:02;37.67;;;10.70;;
2912;SDS011;1466;48.778;9.166;2023-05-07T09:05:27;36.93;;;10.70;;
2912;SDS011;1466;48.778;9.166;2023-05-07T09:07:53;24.73;;;8.40;;
2912;SDS011;1466;48.778;9.166;2023-05-07T09:10:20;45.27;;;12.03;;
2912;SDS011;1466;48.778;9.166;2023-05-07T09:12:46;17.07;;;7.30;;
2912;SDS011;1466;48.778;9.166;2023-05-07T09:15:13;16.40;;;7.63;;
2912;SDS011;1466;48.778;9.166;2023-05-07T09:17:38;15.43;;;7.50;;
2912;SDS011;1466;48.778;9.166;2023-05-07T09:20:06;13.73;;;7.30;;
2912;SDS011;1466;48.778;9.166;2023-05-07T09:22:33;18.80;;;8.03;;
2912;SDS011;1466;48.778;9.166;2023-05-07T09:25:01;14.33;;;7.10;;
2912;SDS011;1466;48.778;9.166;2023-05-07T09:27:26;19.23;;;7.90;;
2912;SDS011;1466;48.778;9.166;2023-05-07T09:29:52;20.30;;;7.80;;
2912;SDS011;1466;48.778;9.166;2023-05-07T09:32:18;14.37;;;7.17;;
2912;SDS011;1466;48.778;9.166;2023-05-07T09:34:43;15.30;;;7.37;;
2912;SDS011;1466;48.778;9.166;2023-05-07T09:37:10;11.20;;;6.30;;
2912;SDS011;1466;48.778;9.166;2023-05-07T09:39:44;14.53;;;7.03;;
2912;SDS011;1466;48.778;9.166;2023-05-07T09:42:11;11.10;;;6.90;;
2912;SDS011;1466;48.778;9.166;2023-05-07T09:44:37;10.23;;;6.43;;
2912;SDS011;1466;48.778;9.166;2023-05-07T09:47:07;14.30;;;6.97;;
2912;SDS011;1466;48.778;9.166;2023-05-07T09:49:34;15.77;;;7.50;;
2912;SDS011;1466;48.778;9.166;2023-05-07T09:52:02;18.67;;;7.53;;
2912;SDS011;1466;48.778;9.166;2023-05-07T09:54:31;13.40;;;7.03;;
2912;SDS011;1466;48.778;9.166;2023-05-07T09:56:58;21.40;;;8.00;;
2912;SDS011;1466;48.778;9.166;2023-05-07T09:59:27;13.87;;;7.33;;
2912;SDS011;1466;48.778;9.166;2023-05-07T10:01:53;27.70;;;9.27;;
2912;SDS011;1466;48.778;9.166;2023-05-07T10:04:22;19.40;;;7.77;;
2912;SDS011;1466;48.778;9.166;2023-05-07T10:06:49;19.50;;;7.67;;
2912;SDS011;1466;48.778;9.166;2023-05-07T10:09:15;13.20;;;6.70;;
2912;SDS011;1466;48.778;9.166;2023-05-07T10:11:41;15.73;;;7.57;;
2912;SDS011;1466;48.778;9.166;2023-05-07T10:14:08;19.63;;;7.40;;
2912;SDS011;1466;48.778;9.166;2023-05-07T10:16:35;20.70;;;8.17;;
2912;SDS011;1466;48.778;9.166;2023-05-07T10:19:05;30.97;;;9.40;;
2912;SDS011;1466;48.778;9.166;2023-05-07T10:21:32;18.70;;;7.70;;
2912;SDS011;1466;48.778;9.166;2023-05-07T10:24:09;24.33;;;8.13;;
2912;SDS011;1466;48.778;9.166;2023-05-07T10:26:45;16.00;;;7.07;;
2912;SDS011;1466;48.778;9.166;2023-05-07T10:29:17;18.53;;;8.07;;
2912;SDS011;1466;48.778;9.166;2023-05-07T10:34:21;28.73;;;11.10;;
2912;SDS011;1466;48.778;9.166;2023-05-07T10:36:49;15.97;;;7.33;;
2912;SDS011;1466;48.778;9.166;2023-05-07T10:39:16;19.73;;;8.10;;
2912;SDS011;1466;48.778;9.166;2023-05-07T10:41:42;15.77;;;7.50;;
2912;SDS011;1466;48.778;9.166;2023-05-07T10:44:08;19.63;;;8.17;;
2912;SDS011;1466;48.778;9.166;2023-05-07T10:46:33;21.17;;;8.23;;
2912;SDS011;1466;48.778;9.166;2023-05-07T10:51:26;24.70;;;8.40;;
2912;SDS011;1466;48.778;9.166;2023-05-07T10:56:37;15.10;;;6.40;;
2912;SDS011;1466;48.778;9.166;2023-05-07T11:04:21;24.73;;;9.13;;
2912;SDS011;1466;48.778;9.166;2023-05-07T11:12:16;19.10;;;7.60;;
2912;SDS011;1466;48.778;9.166;2023-05-07T11:17:09;18.10;;;7.90;;
2912;SDS011;1466;48.778;9.166;2023-05-07T11:19:53;15.00;;;7.13;;
2912;SDS011;1466;48.778;9.166;2023-05-07T11:25:02;14.20;;;7.33;;
2912;SDS011;1466;48.778;9.166;2023-05-07T11:27:28;18.47;;;8.00;;
2912;SDS011;1466;48.778;9.166;2023-05-07T11:29:54;16.20;;;7.67;;
2912;SDS011;1466;48.778;9.166;2023-05-07T11:32:27;18.17;;;7.43;;
2912;SDS011;1466;48.778;9.166;2023-05-07T11:34:55;17.83;;;7.70;;
2912;SDS011;1466;48.778;9.166;2023-05-07T11:37:22;20.03;;;7.10;;
2912;SDS011;1466;48.778;9.166;2023-05-07T11:39:48;28.53;;;8.00;;
2912;SDS011;1466;48.778;9.166;2023-05-07T11:44:58;26.57;;;10.10;;
2912;SDS011;1466;48.778;9.166;2023-05-07T11:47:25;15.20;;;6.77;;
2912;SDS011;1466;48.778;9.166;2023-05-07T11:49:51;21.20;;;8.10;;
2912;SDS011;1466;48.778;9.166;2023-05-07T11:52:18;14.23;;;6.90;;
2912;SDS011;1466;48.778;9.166;2023-05-07T11:54:48;17.17;;;7.93;;
2912;SDS011;1466;48.778;9.166;2023-05-07T11:57:15;24.83;;;8.60;;
2912;SDS011;1466;48.778;9.166;2023-05-07T11:59:40;24.00;;;8.40;;
2912;SDS011;1466;48.778;9.166;2023-05-07T12:02:07;12.63;;;7.07;;
2912;SDS011;1466;48.778;9.166;2023-05-07T12:04:33;12.47;;;7.13;;
2912;SDS011;1466;48.778;9.166;2023-05-07T12:06:58;13.67;;;7.10;;
2912;SDS011;1466;48.778;9.166;2023-05-07T12:09:24;16.03;;;8.27;;
2912;SDS011;1466;48.778;9.166;2023-05-07T12:11:51;26.47;;;8.80;;
2912;SDS011;1466;48.778;9.166;2023-05-07T12:14:17;18.63;;;9.23;;
2912;SDS011;1466;48.778;9.166;2023-05-07T12:16:43;26.97;;;10.10;;
2912;SDS011;1466;48.778;9.166;2023-05-07T12:19:13;31.67;;;11.13;;
2912;SDS011;1466;48.778;9.166;2023-05-07T12:21:41;27.27;;;8.37;;
2912;SDS011;1466;48.778;9.166;2023-05-07T12:24:07;22.77;;;8.10;;
2912;SDS011;1466;48.778;9.166;2023-05-07T12:26:36;28.60;;;8.50;;
2912;SDS011;1466;48.778;9.166;2023-05-07T12:29:05;34.20;;;9.50;;
2912;SDS011;1466;48.778;9.166;2023-05-07T12:31:31;19.10;;;8.27;;
2912;SDS011;1466;48.778;9.166;2023-05-07T12:33:57;20.90;;;7.67;;
2912;SDS011;1466;48.778;9.166;2023-05-07T12:36:23;20.07;;;7.30;;
2912;SDS011;1466;48.778;9.166;2023-05-07T12:38:51;42.87;;;11.57;;
2912;SDS011;1466;48.778;9.166;2023-05-07T12:41:19;27.95;;;9.70;;
2912;SDS011;1466;48.778;9.166;2023-05-07T12:43:50;26.45;;;9.70;;
2912;SDS011;1466;48.778;9.166;2023-05-07T12:46:22;26.10;;;9.95;;
2912;SDS011;1466;48.778;9.166;2023-05-07T12:48:48;26.30;;;8.93;;
2912;SDS011;1466;48.778;9.166;2023-05-07T12:51:14;27.87;;;7.93;;
2912;SDS011;1466;48.778;9.166;2023-05-07T12:53:41;37.42;;;8.43;;
2912;SDS011;1466;48.778;9.166;2023-05-07T12:56:09;19.25;;;5.40;;
2912;SDS011;1466;48.778;9.166;2023-05-07T12:58:35;16.63;;;4.60;;
2912;SDS011;1466;48.778;9.166;2023-05-07T13:01:05;8.30;;;3.40;;
2912;SDS011;1466;48.778;9.166;2023-05-07T13:03:36;18.20;;;4.97;;
2912;SDS011;1466;48.778;9.166;2023-05-07T13:06:06;12.02;;;4.00;;
2912;SDS011;1466;48.778;9.166;2023-05-07T13:08:38;21.35;;;5.38;;
2912;SDS011;1466;48.778;9.166;2023-05-07T13:11:10;15.45;;;4.50;;
2912;SDS011;1466;48.778;9.166;2023-05-07T13:13:37;13.02;;;4.30;;
2912;SDS011;1466;48.778;9.166;2023-05-07T13:16:04;27.88;;;6.70;;
2912;SDS011;1466;48.778;9.166;2023-05-07T13:18:31;23.13;;;5.80;;
2912;SDS011;1466;48.778;9.166;2023-05-07T13:20:59;12.02;;;4.03;;
2912;SDS011;1466;48.778;9.166;2023-05-07T13:23:25;10.60;;;4.07;;
2912;SDS011;1466;48.778;9.166;2023-05-07T13:25:51;12.27;;;4.17;;
2912;SDS011;1466;48.778;9.166;2023-05-07T13:28:18;12.80;;;4.20;;
2912;SDS011;1466;48.778;9.166;2023-05-07T13:30:45;16.63;;;5.00;;
2912;SDS011;1466;48.778;9.166;2023-05-07T13:33:11;12.40;;;4.33;;
2912;SDS011;1466;48.778;9.166;2023-05-07T13:35:36;33.67;;;7.60;;
2912;SDS011;1466;48.778;9.166;2023-05-07T13:38:02;30.20;;;6.90;;
2912;SDS011;1466;48.778;9.166;2023-05-07T13:40:28;17.92;;;5.15;;
2912;SDS011;1466;48.778;9.166;2023-05-07T13:42:56;12.90;;;4.28;;
2912;SDS011;1466;48.778;9.166;2023-05-07T13:45:23;20.45;;;5.38;;
2912;SDS011;1466;48.778;9.166;2023-05-07T13:47:50;15.63;;;4.68;;
2912;SDS011;1466;48.778;9.166;2023-05-07T13:50:16;18.85;;;5.25;;
2912;SDS011;1466;48.778;9.166;2023-05-07T13:52:43;19.00;;;5.33;;
2912;SDS011;1466;48.778;9.166;2023-05-07T13:55:19;14.65;;;4.47;;
2912;SDS011;1466;48.778;9.166;2023-05-07T13:57:54;15.05;;;4.57;;
2912;SDS011;1466;48.778;9.166;2023-05-07T14:00:26;10.73;;;4.00;;
2912;SDS011;1466;48.778;9.166;2023-05-07T14:02:53;13.20;;;4.25;;
2912;SDS011;1466;48.778;9.166;2023-05-07T14:05:19;13.27;;;4.35;;
2912;SDS011;1466;48.778;9.166;2023-05-07T14:07:45;14.57;;;4.43;;
2912;SDS011;1466;48.778;9.166;2023-05-07T14:10:10;17.27;;;5.03;;
2912;SDS011;1466;48.778;9.166;2023-05-07T14:12:36;15.27;;;4.73;;
2912;SDS011;1466;48.778;9.166;2023-05-07T14:15:02;21.90;;;5.77;;
2912;SDS011;1466;48.778;9.166;2023-05-07T14:17:28;13.50;;;4.45;;
2912;SDS011;1466;48.778;9.166;2023-05-07T14:19:54;19.73;;;5.53;;
2912;SDS011;1466;48.778;9.166;2023-05-07T14:22:20;20.47;;;5.50;;
2912;SDS011;1466;48.778;9.166;2023-05-07T14:24:47;16.58;;;4.82;;
2912;SDS011;1466;48.778;9.166;2023-05-07T14:27:13;15.35;;;4.70;;
2912;SDS011;1466;48.778;9.166;2023-05-07T14:29:39;11.77;;;4.20;;
2912;SDS011;1466;48.778;9.166;2023-05-07T14:32:08;17.07;;;4.93;;
2912;SDS011;1466;48.778;9.166;2023-05-07T14:34:34;18.25;;;7.53;;
2912;SDS011;1466;48.778;9.166;2023-05-07T14:36:59;19.43;;;6.87;;
2912;SDS011;1466;48.778;9.166;2023-05-07T14:39:26;26.42;;;9.32;;
2912;SDS011;1466;48.778;9.166;2023-05-07T14:41:52;34.50;;;10.10;;
2912;SDS011;1466;48.778;9.166;2023-05-07T14:44:19;23.25;;;8.82;;
2912;SDS011;1466;48.778;9.166;2023-05-07T14:46:45;68.35;;;15.70;;
2912;SDS011;1466;48.778;9.166;2023-05-07T14:49:11;25.80;;;9.50;;
2912;SDS011;1466;48.778;9.166;2023-05-07T14:51:42;25.30;;;8.55;;
2912;SDS011;1466;48.778;9.166;2023-05-07T14:54:09;24.30;;;8.77;;
2912;SDS011;1466;48.778;9.166;2023-05-07T14:56:34;26.57;;;9.03;;
2912;SDS011;1466;48.778;9.166;2023-05-07T14:59:00;30.87;;;10.17;;
2912;SDS011;1466;48.778;9.166;2023-05-07T15:01:27;33.55;;;9.73;;
2912;SDS011;1466;48.778;9.166;2023-05-07T15:03:53;24.87;;;8.27;;
2912;SDS011;1466;48.778;9.166;2023-05-07T15:06:19;30.00;;;9.73;;
2912;SDS011;1466;48.778;9.166;2023-05-07T15:08:44;23.17;;;7.87;;
2912;SDS011;1466;48.778;9.166;2023-05-07T15:11:10;23.80;;;7.83;;
2912;SDS011;1466;48.778;9.166;2023-05-07T15:13:36;27.43;;;8.60;;
2912;SDS011;1466;48.778;9.166;2023-05-07T15:16:01;37.37;;;10.00;;
2912;SDS011;1466;48.778;9.166;2023-05-07T15:18:27;21.17;;;7.80;;
2912;SDS011;1466;48.778;9.166;2023-05-07T15:20:52;18.93;;;6.83;;
2912;SDS011;1466;48.778;9.166;2023-05-07T15:23:18;21.33;;;8.50;;